sensor_id;sensor_type;location;lat;lon;timestamp;temperature;humidity
17307;DHT22;8771;48.048;7.682;2023-05-07T00:04:43;16.00;71.20
17307;DHT22;8771;48.048;7.682;2023-05-07T00:09:47;16.00;71.20
17307;DHT22;8771;48.048;7.682;2023-05-07T00:14:49;16.00;71.00
17307;DHT22;8771;48.048;7.682;2023-05-07T00:19:51;16.00;71.00
17307;DHT22;8771;48.048;7.682;2023-05-07T00:24:54;16.00;70.90
17307;DHT22;8771;48.048;7.682;2023-05-07T00:29:56;16.00;71.00
17307;DHT22;8771;48.048;7.682;2023-05-07T00:34:58;16.00;71.00
17307;DHT22;8771;48.048;7.682;2023-05-07T00:40:01;16.00;71.20
17307;DHT22;8771;48.048;7.682;2023-05-07T00:45:06;15.90;70.90
17307;DHT22;8771;48.048;7.682;2023-05-07T00:50:09;15.90;71.00
17307;DHT22;8771;48.048;7.682;2023-05-07T00:55:14;15.90;71.00
17307;DHT22;8771;48.048;7.682;2023-05-07T01:00:17;15.90;71.10
17307;DHT22;8771;48.048;7.682;2023-05-07T01:05:21;15.90;71.10
17307;DHT22;8771;48.048;7.682;2023-05-07T01:10:26;15.80;71.00
17307;DHT22;8771;48.048;7.682;2023-05-07T01:15:28;15.80;71.00
17307;DHT22;8771;48.048;7.682;2023-05-07T01:20:30;15.70;71.00
17307;DHT22;8771;48.048;7.682;2023-05-07T01:25:33;15.60;71.30
17307;DHT22;8771;48.048;7.682;2023-05-07T01:30:36;15.50;71.40
17307;DHT22;8771;48.048;7.682;2023-05-07T01:35:43;15.50;71.50
17307;DHT22;8771;48.048;7.682;2023-05-07T01:40:47;15.40;71.50
17307;DHT22;8771;48.048;7.682;2023-05-07T01:45:49;15.50;71.60
17307;DHT22;8771;48.048;7.682;2023-05-07T01:50:51;15.40;71.50
17307;DHT22;8771;48.048;7.682;2023-05-07T01:55:55;15.40;71.50
17307;DHT22;8771;48.048;7.682;2023-05-07T02:00:57;15.30;71.50
17307;DHT22;8771;48.048;7.682;2023-05-07T02:05:59;15.30;71.60
17307;DHT22;8771;48.048;7.682;2023-05-07T02:11:02;15.20;71.60
17307;DHT22;8771;48.048;7.682;2023-05-07T02:16:04;15.20;71.70
17307;DHT22;8771;48.048;7.682;2023-05-07T02:21:07;15.10;71.70
17307;DHT22;8771;48.048;7.682;2023-05-07T02:26:10;15.10;71.90
17307;DHT22;8771;48.048;7.682;2023-05-07T02:31:12;15.00;71.90
17307;DHT22;8771;48.048;7.682;2023-05-07T02:36:14;14.90;71.90
17307;DHT22;8771;48.048;7.682;2023-05-07T02:41:17;14.90;71.90
17307;DHT22;8771;48.048;7.682;2023-05-07T02:46:21;14.80;72.00
17307;DHT22;8771;48.048;7.682;2023-05-07T02:51:23;14.70;72.20
17307;DHT22;8771;48.048;7.682;2023-05-07T02:56:27;14.60;72.30
17307;DHT22;8771;48.048;7.682;2023-05-07T03:01:29;14.50;72.40
17307;DHT22;8771;48.048;7.682;2023-05-07T03:06:31;14.50;72.30
17307;DHT22;8771;48.048;7.682;2023-05-07T03:11:34;14.50;72.30
17307;DHT22;8771;48.048;7.682;2023-05-07T03:16:38;14.50;72.30
17307;DHT22;8771;48.048;7.682;2023-05-07T03:21:42;14.50;72.30
17307;DHT22;8771;48.048;7.682;2023-05-07T03:26:45;14.40;72.20
17307;DHT22;8771;48.048;7.682;2023-05-07T03:31:47;14.40;72.20
17307;DHT22;8771;48.048;7.682;2023-05-07T03:36:49;14.40;72.20
17307;DHT22;8771;48.048;7.682;2023-05-07T03:41:53;14.40;73.00
17307;DHT22;8771;48.048;7.682;2023-05-07T03:46:54;14.40;72.20
17307;DHT22;8771;48.048;7.682;2023-05-07T03:51:57;14.30;72.20
17307;DHT22;8771;48.048;7.682;2023-05-07T03:57:01;14.30;72.30
17307;DHT22;8771;48.048;7.682;2023-05-07T04:02:03;14.20;72.20
17307;DHT22;8771;48.048;7.682;2023-05-07T04:07:05;14.20;72.40
17307;DHT22;8771;48.048;7.682;2023-05-07T04:12:09;14.20;72.40
17307;DHT22;8771;48.048;7.682;2023-05-07T04:17:11;14.20;73.10
17307;DHT22;8771;48.048;7.682;2023-05-07T04:22:13;14.20;72.30
17307;DHT22;8771;48.048;7.682;2023-05-07T04:27:16;14.10;72.20
17307;DHT22;8771;48.048;7.682;2023-05-07T04:32:18;14.10;72.20
17307;DHT22;8771;48.048;7.682;2023-05-07T04:37:20;14.20;72.20
17307;DHT22;8771;48.048;7.682;2023-05-07T04:42:23;14.20;72.10
17307;DHT22;8771;48.048;7.682;2023-05-07T04:47:25;14.30;72.00
17307;DHT22;8771;48.048;7.682;2023-05-07T04:52:27;14.30;72.70
17307;DHT22;8771;48.048;7.682;2023-05-07T04:57:30;14.40;71.90
17307;DHT22;8771;48.048;7.682;2023-05-07T05:02:32;14.50;71.80
17307;DHT22;8771;48.048;7.682;2023-05-07T05:07:34;14.60;71.80
17307;DHT22;8771;48.048;7.682;2023-05-07T05:12:37;14.70;71.60
17307;DHT22;8771;48.048;7.682;2023-05-07T05:17:39;14.80;71.60
17307;DHT22;8771;48.048;7.682;2023-05-07T05:22:41;14.90;71.40
17307;DHT22;8771;48.048;7.682;2023-05-07T05:27:45;15.00;71.30
17307;DHT22;8771;48.048;7.682;2023-05-07T05:32:47;15.10;71.20
17307;DHT22;8771;48.048;7.682;2023-05-07T05:37:49;15.30;71.10
17307;DHT22;8771;48.048;7.682;2023-05-07T05:42:52;15.40;71.00
17307;DHT22;8771;48.048;7.682;2023-05-07T05:47:56;15.50;70.80
17307;DHT22;8771;48.048;7.682;2023-05-07T05:52:58;15.70;70.90
17307;DHT22;8771;48.048;7.682;2023-05-07T05:58:01;15.80;70.70
17307;DHT22;8771;48.048;7.682;2023-05-07T06:03:03;16.00;70.70
17307;DHT22;8771;48.048;7.682;2023-05-07T06:08:05;16.20;70.40
17307;DHT22;8771;48.048;7.682;2023-05-07T06:13:08;16.30;70.30
17307;DHT22;8771;48.048;7.682;2023-05-07T06:23:14;16.80;69.30
17307;DHT22;8771;48.048;7.682;2023-05-07T06:28:17;17.10;69.70
17307;DHT22;8771;48.048;7.682;2023-05-07T06:33:19;17.30;69.60
17307;DHT22;8771;48.048;7.682;2023-05-07T06:38:21;17.50;69.40
17307;DHT22;8771;48.048;7.682;2023-05-07T06:43:24;17.70;69.20
17307;DHT22;8771;48.048;7.682;2023-05-07T06:48:26;18.00;69.00
17307;DHT22;8771;48.048;7.682;2023-05-07T06:53:28;18.30;68.80
17307;DHT22;8771;48.048;7.682;2023-05-07T06:58:32;18.60;68.60
17307;DHT22;8771;48.048;7.682;2023-05-07T07:03:34;18.80;68.30
17307;DHT22;8771;48.048;7.682;2023-05-07T07:08:36;19.10;68.10
17307;DHT22;8771;48.048;7.682;2023-05-07T07:13:40;19.40;67.80
17307;DHT22;8771;48.048;7.682;2023-05-07T07:18:43;19.80;67.50
17307;DHT22;8771;48.048;7.682;2023-05-07T07:23:45;20.10;67.20
17307;DHT22;8771;48.048;7.682;2023-05-07T07:28:48;20.30;67.10
17307;DHT22;8771;48.048;7.682;2023-05-07T07:33:50;20.50;67.00
17307;DHT22;8771;48.048;7.682;2023-05-07T07:38:53;20.70;67.00
17307;DHT22;8771;48.048;7.682;2023-05-07T07:43:56;20.90;66.80
17307;DHT22;8771;48.048;7.682;2023-05-07T07:48:58;21.20;66.60
17307;DHT22;8771;48.048;7.682;2023-05-07T07:54:00;21.40;66.40
17307;DHT22;8771;48.048;7.682;2023-05-07T07:59:04;21.60;66.30
17307;DHT22;8771;48.048;7.682;2023-05-07T08:04:06;21.80;66.30
17307;DHT22;8771;48.048;7.682;2023-05-07T08:09:08;22.10;66.10
17307;DHT22;8771;48.048;7.682;2023-05-07T08:14:11;22.20;66.00
17307;DHT22;8771;48.048;7.682;2023-05-07T08:19:13;22.40;66.00
17307;DHT22;8771;48.048;7.682;2023-05-07T08:24:16;22.50;65.90
17307;DHT22;8771;48.048;7.682;2023-05-07T08:29:19;22.60;66.00
17307;DHT22;8771;48.048;7.682;2023-05-07T08:34:21;22.70;66.20
17307;DHT22;8771;48.048;7.682;2023-05-07T08:39:24;22.80;66.40
17307;DHT22;8771;48.048;7.682;2023-05-07T08:44:27;23.10;66.00
17307;DHT22;8771;48.048;7.682;2023-05-07T08:49:30;23.30;65.60
17307;DHT22;8771;48.048;7.682;2023-05-07T08:54:32;23.70;65.40
17307;DHT22;8771;48.048;7.682;2023-05-07T08:59:36;24.00;65.10
17307;DHT22;8771;48.048;7.682;2023-05-07T09:04:38;24.30;64.80
17307;DHT22;8771;48.048;7.682;2023-05-07T09:09:40;24.50;64.60
17307;DHT22;8771;48.048;7.682;2023-05-07T09:14:43;24.70;64.50
17307;DHT22;8771;48.048;7.682;2023-05-07T09:19:46;24.90;64.40
17307;DHT22;8771;48.048;7.682;2023-05-07T09:24:49;25.00;64.40
17307;DHT22;8771;48.048;7.682;2023-05-07T09:29:52;25.00;64.50
17307;DHT22;8771;48.048;7.682;2023-05-07T09:34:54;25.10;64.60
17307;DHT22;8771;48.048;7.682;2023-05-07T09:39:56;25.10;64.60
17307;DHT22;8771;48.048;7.682;2023-05-07T09:45:00;25.20;64.70
17307;DHT22;8771;48.048;7.682;2023-05-07T09:50:05;25.30;64.70
17307;DHT22;8771;48.048;7.682;2023-05-07T09:55:08;25.20;64.90
17307;DHT22;8771;48.048;7.682;2023-05-07T10:00:13;25.20;65.20
17307;DHT22;8771;48.048;7.682;2023-05-07T10:05:16;25.40;65.00
17307;DHT22;8771;48.048;7.682;2023-05-07T10:10:19;25.60;64.80
17307;DHT22;8771;48.048;7.682;2023-05-07T10:15:23;25.70;64.60
17307;DHT22;8771;48.048;7.682;2023-05-07T10:20:26;25.80;64.60
17307;DHT22;8771;48.048;7.682;2023-05-07T10:25:30;25.70;64.80
17307;DHT22;8771;48.048;7.682;2023-05-07T10:30:41;25.60;65.00
17307;DHT22;8771;48.048;7.682;2023-05-07T10:35:47;25.30;65.40
17307;DHT22;8771;48.048;7.682;2023-05-07T10:40:50;25.10;65.70
17307;DHT22;8771;48.048;7.682;2023-05-07T10:46:14;24.90;66.10
17307;DHT22;8771;48.048;7.682;2023-05-07T10:51:21;24.70;66.40
17307;DHT22;8771;48.048;7.682;2023-05-07T10:56:26;24.40;66.70
17307;DHT22;8771;48.048;7.682;2023-05-07T11:01:52;24.20;67.00
17307;DHT22;8771;48.048;7.682;2023-05-07T11:07:26;23.90;67.50
17307;DHT22;8771;48.048;7.682;2023-05-07T11:12:53;23.50;67.80
17307;DHT22;8771;48.048;7.682;2023-05-07T11:17:58;23.20;68.30
17307;DHT22;8771;48.048;7.682;2023-05-07T11:23:00;23.00;68.40
17307;DHT22;8771;48.048;7.682;2023-05-07T11:28:06;22.80;68.50
17307;DHT22;8771;48.048;7.682;2023-05-07T11:33:12;22.90;68.50
17307;DHT22;8771;48.048;7.682;2023-05-07T11:38:15;22.90;68.20
17307;DHT22;8771;48.048;7.682;2023-05-07T11:43:17;23.00;68.00
17307;DHT22;8771;48.048;7.682;2023-05-07T11:48:21;23.10;67.80
17307;DHT22;8771;48.048;7.682;2023-05-07T11:53:25;23.20;67.70
17307;DHT22;8771;48.048;7.682;2023-05-07T11:58:27;23.20;67.50
17307;DHT22;8771;48.048;7.682;2023-05-07T12:03:31;23.20;67.50
17307;DHT22;8771;48.048;7.682;2023-05-07T12:08:33;23.20;67.60
17307;DHT22;8771;48.048;7.682;2023-05-07T12:13:37;23.10;67.60
17307;DHT22;8771;48.048;7.682;2023-05-07T12:18:41;23.10;67.70
17307;DHT22;8771;48.048;7.682;2023-05-07T12:23:44;23.00;67.70
17307;DHT22;8771;48.048;7.682;2023-05-07T12:28:46;23.10;67.70
17307;DHT22;8771;48.048;7.682;2023-05-07T12:33:50;23.20;67.50
17307;DHT22;8771;48.048;7.682;2023-05-07T12:38:52;23.20;67.50
17307;DHT22;8771;48.048;7.682;2023-05-07T12:43:56;23.30;67.30
17307;DHT22;8771;48.048;7.682;2023-05-07T12:49:00;23.40;67.30
17307;DHT22;8771;48.048;7.682;2023-05-07T12:54:02;23.30;67.40
17307;DHT22;8771;48.048;7.682;2023-05-07T12:59:04;23.30;67.60
17307;DHT22;8771;48.048;7.682;2023-05-07T13:04:07;23.30;67.60
17307;DHT22;8771;48.048;7.682;2023-05-07T13:09:09;23.40;67.50
17307;DHT22;8771;48.048;7.682;2023-05-07T13:14:11;23.40;67.40
17307;DHT22;8771;48.048;7.682;2023-05-07T13:19:15;23.40;67.40
17307;DHT22;8771;48.048;7.682;2023-05-07T13:24:18;23.30;67.50
17307;DHT22;8771;48.048;7.682;2023-05-07T13:29:22;23.20;67.40
17307;DHT22;8771;48.048;7.682;2023-05-07T13:34:30;23.20;67.40
17307;DHT22;8771;48.048;7.682;2023-05-07T13:39:32;23.20;67.30
17307;DHT22;8771;48.048;7.682;2023-05-07T13:44:34;23.30;67.10
17307;DHT22;8771;48.048;7.682;2023-05-07T13:49:37;23.40;66.90
17307;DHT22;8771;48.048;7.682;2023-05-07T13:54:39;23.50;66.80
17307;DHT22;8771;48.048;7.682;2023-05-07T13:59:42;23.70;66.40
17307;DHT22;8771;48.048;7.682;2023-05-07T14:04:45;23.90;66.10
17307;DHT22;8771;48.048;7.682;2023-05-07T14:09:47;24.00;66.00
17307;DHT22;8771;48.048;7.682;2023-05-07T14:14:49;24.00;65.80
17307;DHT22;8771;48.048;7.682;2023-05-07T14:19:52;23.80;66.30
17307;DHT22;8771;48.048;7.682;2023-05-07T14:24:55;23.90;66.40
17307;DHT22;8771;48.048;7.682;2023-05-07T14:29:57;24.00;66.10
17307;DHT22;8771;48.048;7.682;2023-05-07T14:35:00;24.00;65.90
17307;DHT22;8771;48.048;7.682;2023-05-07T14:40:03;24.00;66.00
17307;DHT22;8771;48.048;7.682;2023-05-07T14:45:07;24.00;66.10
17307;DHT22;8771;48.048;7.682;2023-05-07T14:50:10;23.80;66.30
17307;DHT22;8771;48.048;7.682;2023-05-07T14:55:12;23.50;66.60
17307;DHT22;8771;48.048;7.682;2023-05-07T15:00:15;23.50;66.90
17307;DHT22;8771;48.048;7.682;2023-05-07T15:05:19;23.60;66.60
17307;DHT22;8771;48.048;7.682;2023-05-07T15:10:21;23.80;66.20
17307;DHT22;8771;48.048;7.682;2023-05-07T15:15:22;23.90;65.80
17307;DHT22;8771;48.048;7.682;2023-05-07T15:20:26;24.00;65.80
17307;DHT22;8771;48.048;7.682;2023-05-07T15:25:30;23.90;65.90
17307;DHT22;8771;48.048;7.682;2023-05-07T15:30:33;23.90;66.00
17307;DHT22;8771;48.048;7.682;2023-05-07T15:35:36;23.90;66.10
17307;DHT22;8771;48.048;7.682;2023-05-07T15:40:38;23.90;66.00
17307;DHT22;8771;48.048;7.682;2023-05-07T15:45:43;23.90;65.80
17307;DHT22;8771;48.048;7.682;2023-05-07T15:50:46;23.90;65.80
17307;DHT22;8771;48.048;7.682;2023-05-07T15:55:48;23.90;66.60
17307;DHT22;8771;48.048;7.682;2023-05-07T16:00:50;23.90;65.90
17307;DHT22;8771;48.048;7.682;2023-05-07T16:05:55;23.90;66.00
17307;DHT22;8771;48.048;7.682;2023-05-07T16:11:00;23.90;66.00
17307;DHT22;8771;48.048;7.682;2023-05-07T16:16:02;23.90;66.10
17307;DHT22;8771;48.048;7.682;2023-05-07T16:21:05;23.80;66.10
17307;DHT22;8771;48.048;7.682;2023-05-07T16:26:07;23.70;66.30
17307;DHT22;8771;48.048;7.682;2023-05-07T16:31:09;23.60;66.40
17307;DHT22;8771;48.048;7.682;2023-05-07T16:36:12;23.30;66.60
17307;DHT22;8771;48.048;7.682;2023-05-07T16:41:14;23.10;66.80
17307;DHT22;8771;48.048;7.682;2023-05-07T16:46:16;23.00;67.00
17307;DHT22;8771;48.048;7.682;2023-05-07T16:51:20;23.00;67.10
17307;DHT22;8771;48.048;7.682;2023-05-07T16:56:24;22.90;67.10
17307;DHT22;8771;48.048;7.682;2023-05-07T17:01:25;22.80;67.10
17307;DHT22;8771;48.048;7.682;2023-05-07T17:06:33;22.80;67.20
17307;DHT22;8771;48.048;7.682;2023-05-07T17:11:36;22.70;67.20
17307;DHT22;8771;48.048;7.682;2023-05-07T17:16:37;22.70;67.10
17307;DHT22;8771;48.048;7.682;2023-05-07T17:21:41;22.70;67.00
17307;DHT22;8771;48.048;7.682;2023-05-07T17:26:43;22.70;67.00
17307;DHT22;8771;48.048;7.682;2023-05-07T17:31:45;22.70;67.00
17307;DHT22;8771;48.048;7.682;2023-05-07T17:36:48;22.50;67.00
17307;DHT22;8771;48.048;7.682;2023-05-07T17:41:50;22.50;67.10
17307;DHT22;8771;48.048;7.682;2023-05-07T17:46:52;22.40;67.10
17307;DHT22;8771;48.048;7.682;2023-05-07T17:51:55;22.30;67.30
17307;DHT22;8771;48.048;7.682;2023-05-07T17:56:57;22.20;67.50
17307;DHT22;8771;48.048;7.682;2023-05-07T18:01:59;22.10;67.60
17307;DHT22;8771;48.048;7.682;2023-05-07T18:07:02;22.10;67.60
17307;DHT22;8771;48.048;7.682;2023-05-07T18:12:04;22.00;67.60
17307;DHT22;8771;48.048;7.682;2023-05-07T18:17:06;21.90;67.70
17307;DHT22;8771;48.048;7.682;2023-05-07T18:22:10;21.90;67.70
17307;DHT22;8771;48.048;7.682;2023-05-07T18:27:12;21.90;67.80
17307;DHT22;8771;48.048;7.682;2023-05-07T18:32:14;21.80;67.80
17307;DHT22;8771;48.048;7.682;2023-05-07T18:37:17;21.70;68.00
17307;DHT22;8771;48.048;7.682;2023-05-07T18:42:19;21.60;68.10
17307;DHT22;8771;48.048;7.682;2023-05-07T18:47:21;21.60;68.10
17307;DHT22;8771;48.048;7.682;2023-05-07T18:52:24;21.50;68.10
17307;DHT22;8771;48.048;7.682;2023-05-07T18:57:27;21.50;68.30
17307;DHT22;8771;48.048;7.682;2023-05-07T19:02:29;21.40;68.30
17307;DHT22;8771;48.048;7.682;2023-05-07T19:07:32;21.30;68.30
17307;DHT22;8771;48.048;7.682;2023-05-07T19:12:34;21.30;68.40
17307;DHT22;8771;48.048;7.682;2023-05-07T19:17:36;21.20;68.50
17307;DHT22;8771;48.048;7.682;2023-05-07T19:22:39;21.10;68.60
17307;DHT22;8771;48.048;7.682;2023-05-07T19:27:41;21.00;69.50
17307;DHT22;8771;48.048;7.682;2023-05-07T19:32:43;20.90;68.90
17307;DHT22;8771;48.048;7.682;2023-05-07T19:37:46;20.70;69.00
17307;DHT22;8771;48.048;7.682;2023-05-07T19:42:48;20.60;69.30
17307;DHT22;8771;48.048;7.682;2023-05-07T19:47:50;20.40;69.30
17307;DHT22;8771;48.048;7.682;2023-05-07T19:52:53;20.30;69.50
17307;DHT22;8771;48.048;7.682;2023-05-07T19:57:55;20.10;69.60
17307;DHT22;8771;48.048;7.682;2023-05-07T20:02:57;20.00;69.80
17307;DHT22;8771;48.048;7.682;2023-05-07T20:08:01;20.00;69.80
17307;DHT22;8771;48.048;7.682;2023-05-07T20:13:03;19.90;69.80
17307;DHT22;8771;48.048;7.682;2023-05-07T20:18:05;19.90;69.90
17307;DHT22;8771;48.048;7.682;2023-05-07T20:23:08;19.80;70.00
17307;DHT22;8771;48.048;7.682;2023-05-07T20:28:10;19.70;70.10
17307;DHT22;8771;48.048;7.682;2023-05-07T20:33:12;19.60;70.10
17307;DHT22;8771;48.048;7.682;2023-05-07T20:38:15;19.60;70.20
17307;DHT22;8771;48.048;7.682;2023-05-07T20:43:17;19.60;70.10
17307;DHT22;8771;48.048;7.682;2023-05-07T20:48:19;19.50;70.10
17307;DHT22;8771;48.048;7.682;2023-05-07T20:53:23;19.40;70.30
17307;DHT22;8771;48.048;7.682;2023-05-07T20:58:27;19.40;70.40
17307;DHT22;8771;48.048;7.682;2023-05-07T21:03:28;19.30;70.30
17307;DHT22;8771;48.048;7.682;2023-05-07T21:08:32;19.30;70.40
17307;DHT22;8771;48.048;7.682;2023-05-07T21:13:35;19.30;70.40
17307;DHT22;8771;48.048;7.682;2023-05-07T21:18:36;19.30;70.40
17307;DHT22;8771;48.048;7.682;2023-05-07T21:23:40;19.30;70.40
17307;DHT22;8771;48.048;7.682;2023-05-07T21:28:42;19.30;70.30
17307;DHT22;8771;48.048;7.682;2023-05-07T21:33:44;19.30;70.30
17307;DHT22;8771;48.048;7.682;2023-05-07T21:38:47;19.20;70.30
17307;DHT22;8771;48.048;7.682;2023-05-07T21:43:49;19.20;70.50
17307;DHT22;8771;48.048;7.682;2023-05-07T21:48:51;19.10;70.60
17307;DHT22;8771;48.048;7.682;2023-05-07T21:53:54;19.10;70.70
17307;DHT22;8771;48.048;7.682;2023-05-07T21:58:56;19.00;70.80
17307;DHT22;8771;48.048;7.682;2023-05-07T22:03:58;19.00;70.90
17307;DHT22;8771;48.048;7.682;2023-05-07T22:09:01;19.00;70.90
17307;DHT22;8771;48.048;7.682;2023-05-07T22:14:03;18.90;70.80
17307;DHT22;8771;48.048;7.682;2023-05-07T22:19:05;18.90;70.80
17307;DHT22;8771;48.048;7.682;2023-05-07T22:24:09;18.90;70.90
17307;DHT22;8771;48.048;7.682;2023-05-07T22:29:11;18.90;70.90
17307;DHT22;8771;48.048;7.682;2023-05-07T22:34:13;18.90;71.00
17307;DHT22;8771;48.048;7.682;2023-05-07T22:39:16;18.90;71.10
17307;DHT22;8771;48.048;7.682;2023-05-07T22:44:18;18.80;71.00
17307;DHT22;8771;48.048;7.682;2023-05-07T22:49:20;18.80;71.10
17307;DHT22;8771;48.048;7.682;2023-05-07T22:54:23;18.80;71.10
17307;DHT22;8771;48.048;7.682;2023-05-07T22:59:25;18.80;71.10
17307;DHT22;8771;48.048;7.682;2023-05-07T23:04:27;18.70;71.20
17307;DHT22;8771;48.048;7.682;2023-05-07T23:09:30;18.70;71.20
17307;DHT22;8771;48.048;7.682;2023-05-07T23:14:32;18.70;71.20
17307;DHT22;8771;48.048;7.682;2023-05-07T23:19:34;18.70;71.20
17307;DHT22;8771;48.048;7.682;2023-05-07T23:24:37;18.70;71.30
17307;DHT22;8771;48.048;7.682;2023-05-07T23:29:39;18.70;71.40
17307;DHT22;8771;48.048;7.682;2023-05-07T23:34:41;18.70;71.40
17307;DHT22;8771;48.048;7.682;2023-05-07T23:39:44;18.70;71.40
17307;DHT22;8771;48.048;7.682;2023-05-07T23:44:46;18.60;71.40
17307;DHT22;8771;48.048;7.682;2023-05-07T23:49:48;18.60;71.50
17307;DHT22;8771;48.048;7.682;2023-05-07T23:54:51;18.60;71.60
17307;DHT22;8771;48.048;7.682;2023-05-07T23:59:53;18.50;71.60
